Time;durP1;ratioP1;P1;durP2;ratioP2;P2;SDS_P1;SDS_P2;PMS_P1;PMS_P2;Temp;Humidity;BMP_temperature;BMP_pressure;BME280_temperature;BME280_humidity;BME280_pressure;Samples;Min_cycle;Max_cycle;Signal;HPM_P1;HPM_P2
2024/02/20 00:00:20;;;;;;;13.98;5.75;;;8.50;99.90;;;;;;5058676;28;20017;-92
2024/02/20 00:02:46;;;;;;;13.68;5.35;;;8.50;99.90;;;;;;5047750;28;20399;-92
2024/02/20 00:05:13;;;;;;;15.98;6.10;;;8.50;99.90;;;;;;5057563;28;20032;-92
2024/02/20 00:07:40;;;;;;;15.85;7.00;;;8.50;99.90;;;;;;5048460;28;20033;-92
2024/02/20 00:10:10;;;;;;;9.85;5.45;;;8.50;99.90;;;;;;5057275;28;20070;-93
2024/02/20 00:12:39;;;;;;;15.15;5.93;;;8.50;99.90;;;;;;5055673;28;20029;-91
2024/02/20 00:15:11;;;;;;;12.10;4.82;;;8.50;99.90;;;;;;5051442;28;20049;-91
2024/02/20 00:17:38;;;;;;;10.02;5.50;;;8.50;99.90;;;;;;5042183;28;20029;-93
2024/02/20 00:20:08;;;;;;;13.73;6.25;;;8.50;99.90;;;;;;5045880;28;20025;-92
2024/02/20 00:22:34;;;;;;;12.77;5.63;;;8.50;99.90;;;;;;5057513;28;20024;-92
2024/02/20 00:25:01;;;;;;;12.35;5.35;;;8.50;99.90;;;;;;5024463;28;20025;-92
2024/02/20 00:27:28;;;;;;;11.65;5.25;;;8.50;99.90;;;;;;5043180;28;20053;-92
2024/02/20 00:29:54;;;;;;;14.30;6.53;;;8.40;99.90;;;;;;5056763;28;20047;-91
2024/02/20 00:32:21;;;;;;;11.68;4.53;;;8.40;99.90;;;;;;5056333;28;20029;-93
2024/02/20 00:34:47;;;;;;;10.23;4.93;;;8.40;99.90;;;;;;5057587;28;20024;-92
2024/02/20 00:37:14;;;;;;;10.68;6.43;;;8.30;99.90;;;;;;5051791;28;20125;-92
2024/02/20 00:39:39;;;;;;;10.75;5.03;;;8.30;99.90;;;;;;5027836;28;20168;-92
2024/02/20 00:42:07;;;;;;;11.73;5.85;;;8.30;99.90;;;;;;5037490;28;20042;-91
2024/02/20 00:44:33;;;;;;;9.98;4.85;;;8.30;99.90;;;;;;5054235;28;20029;-92
2024/02/20 00:46:58;;;;;;;10.02;5.03;;;8.20;99.90;;;;;;5039189;28;20029;-93
2024/02/20 00:49:25;;;;;;;8.75;5.65;;;8.20;99.90;;;;;;5057726;28;20029;-93
2024/02/20 00:51:52;;;;;;;9.15;6.03;;;8.20;99.90;;;;;;5050442;28;20028;-93
2024/02/20 00:54:18;;;;;;;10.77;5.55;;;8.10;99.90;;;;;;5036533;28;20029;-92
2024/02/20 00:56:44;;;;;;;14.60;5.65;;;8.10;99.90;;;;;;5038432;28;20037;-93
2024/02/20 00:59:11;;;;;;;13.88;5.45;;;8.10;99.90;;;;;;5043300;28;20424;-92
2024/02/20 01:01:37;;;;;;;8.35;4.57;;;8.10;99.90;;;;;;5054221;28;20017;-94
2024/02/20 01:04:04;;;;;;;8.55;4.47;;;8.00;99.90;;;;;;5060520;28;20380;-92
2024/02/20 01:06:30;;;;;;;9.32;4.70;;;8.10;99.90;;;;;;5057160;28;20028;-93
2024/02/20 01:08:55;;;;;;;8.00;4.22;;;8.00;99.90;;;;;;5057089;28;20055;-91
2024/02/20 01:11:21;;;;;;;8.48;4.53;;;8.00;99.90;;;;;;5058148;28;20431;-90
2024/02/20 01:13:47;;;;;;;7.28;4.30;;;7.90;99.90;;;;;;5060543;28;20088;-91
2024/02/20 01:16:13;;;;;;;7.68;4.57;;;7.90;99.90;;;;;;5059255;28;20087;-91
2024/02/20 01:18:41;;;;;;;8.68;4.57;;;7.80;99.90;;;;;;5066550;28;20017;-90
2024/02/20 01:21:09;;;;;;;7.68;4.45;;;7.80;99.90;;;;;;5065143;28;20341;-91
2024/02/20 01:23:36;;;;;;;10.05;4.80;;;7.70;99.90;;;;;;5042638;28;20028;-91
2024/02/20 01:26:01;;;;;;;8.13;4.70;;;7.70;99.90;;;;;;5061004;28;20104;-91
2024/02/20 01:28:27;;;;;;;6.43;3.20;;;7.60;99.90;;;;;;5060459;28;20057;-90
2024/02/20 01:30:53;;;;;;;7.28;4.50;;;7.60;99.90;;;;;;5059675;28;20021;-91
2024/02/20 01:33:18;;;;;;;7.47;4.53;;;7.60;99.90;;;;;;5060495;28;20025;-92
2024/02/20 01:35:44;;;;;;;8.55;3.97;;;7.50;99.90;;;;;;5060563;28;20528;-89
2024/02/20 01:38:11;;;;;;;5.13;2.92;;;7.50;99.90;;;;;;5060646;28;20048;-92
2024/02/20 01:40:37;;;;;;;9.02;3.88;;;7.40;99.90;;;;;;5059552;28;20013;-90
2024/02/20 01:43:05;;;;;;;6.97;4.30;;;7.40;99.90;;;;;;5056512;28;20071;-91
2024/02/20 01:45:37;;;;;;;5.65;3.42;;;7.30;99.90;;;;;;5060457;28;20376;-90
2024/02/20 01:48:04;;;;;;;8.00;5.05;;;7.30;99.90;;;;;;5058339;28;20025;-90
2024/02/20 01:50:35;;;;;;;8.65;4.95;;;7.30;99.90;;;;;;5056270;28;20024;-90
2024/02/20 01:53:04;;;;;;;9.82;3.58;;;7.30;99.90;;;;;;5039542;28;20033;-89
2024/02/20 01:55:32;;;;;;;6.55;3.63;;;7.30;99.90;;;;;;5040591;28;20029;-89
2024/02/20 01:57:57;;;;;;;7.97;4.05;;;7.30;99.90;;;;;;5039238;28;20022;-92
2024/02/20 02:00:24;;;;;;;5.60;3.50;;;7.30;99.90;;;;;;5040082;28;20042;-90
2024/02/20 02:02:49;;;;;;;6.13;3.38;;;7.30;99.90;;;;;;5038708;28;20030;-90
2024/02/20 02:05:15;;;;;;;8.45;4.40;;;7.30;99.90;;;;;;5045480;28;20028;-90
2024/02/20 02:07:41;;;;;;;6.18;3.88;;;7.20;99.90;;;;;;5059290;28;20025;-89
2024/02/20 02:10:07;;;;;;;7.45;3.40;;;7.10;99.90;;;;;;5058897;28;20025;-90
2024/02/20 02:12:34;;;;;;;6.45;3.80;;;7.10;99.90;;;;;;5059056;28;20029;-90
2024/02/20 02:14:59;;;;;;;5.60;3.92;;;7.10;99.90;;;;;;5058539;28;20032;-88
2024/02/20 02:17:25;;;;;;;6.40;3.53;;;7.10;99.90;;;;;;5058170;28;20029;-91
2024/02/20 02:19:51;;;;;;;8.77;3.60;;;7.10;99.90;;;;;;5055783;28;20028;-92
2024/02/20 02:22:16;;;;;;;7.93;3.53;;;7.10;99.90;;;;;;5056669;28;20040;-90
2024/02/20 02:24:43;;;;;;;6.47;3.30;;;7.00;99.90;;;;;;5052349;28;20387;-90
2024/02/20 02:27:09;;;;;;;5.07;3.03;;;7.00;99.90;;;;;;5057849;28;20024;-90
2024/02/20 02:29:35;;;;;;;7.82;3.63;;;7.00;99.90;;;;;;5057721;28;20036;-90
2024/02/20 02:32:02;;;;;;;6.70;4.20;;;7.00;99.90;;;;;;5057412;28;20029;-89
2024/02/20 02:34:29;;;;;;;5.40;3.50;;;7.10;99.90;;;;;;5059131;28;20039;-91
2024/02/20 02:36:57;;;;;;;7.18;2.70;;;7.10;99.90;;;;;;5041436;28;20025;-92
2024/02/20 02:39:23;;;;;;;5.35;3.65;;;7.10;99.90;;;;;;5057454;28;20025;-91
2024/02/20 02:41:52;;;;;;;6.90;2.65;;;7.00;99.90;;;;;;5040659;28;20116;-91
2024/02/20 02:44:19;;;;;;;6.80;3.35;;;7.00;99.90;;;;;;5054237;28;20517;-91
2024/02/20 02:46:46;;;;;;;7.50;2.45;;;7.00;99.90;;;;;;5050972;28;20037;-92
2024/02/20 02:49:11;;;;;;;5.22;3.42;;;7.00;99.90;;;;;;5058601;28;20025;-90
2024/02/20 02:51:37;;;;;;;7.18;2.35;;;6.90;99.90;;;;;;5057309;28;20028;-89
2024/02/20 02:54:03;;;;;;;8.52;2.67;;;7.00;99.90;;;;;;5058804;28;20025;-90
2024/02/20 02:56:29;;;;;;;6.70;2.22;;;7.00;99.90;;;;;;5059593;28;20036;-93
2024/02/20 02:58:55;;;;;;;4.70;3.20;;;7.00;99.90;;;;;;5058633;28;20036;-90
2024/02/20 03:01:22;;;;;;;6.63;2.55;;;6.90;99.90;;;;;;5049924;28;20025;-90
2024/02/20 03:03:48;;;;;;;6.05;2.70;;;6.90;99.90;;;;;;5058010;28;20406;-89
2024/02/20 03:06:14;;;;;;;5.68;2.30;;;6.90;99.90;;;;;;5057850;28;20025;-91
2024/02/20 03:08:44;;;;;;;6.82;3.05;;;6.80;99.90;;;;;;5057820;28;20028;-90
2024/02/20 03:11:16;;;;;;;7.22;2.58;;;6.90;99.90;;;;;;5039395;28;20553;-89
2024/02/20 03:13:43;;;;;;;4.60;3.08;;;6.80;99.90;;;;;;5056451;28;20025;-90
2024/02/20 03:16:10;;;;;;;5.55;2.83;;;6.80;99.90;;;;;;5057854;28;20021;-91
2024/02/20 03:18:38;;;;;;;8.63;3.03;;;6.70;99.90;;;;;;5056298;28;20024;-90
2024/02/20 03:21:04;;;;;;;5.78;1.83;;;6.70;99.90;;;;;;5038743;28;20048;-90
2024/02/20 03:23:31;;;;;;;4.13;2.42;;;6.80;99.90;;;;;;5057167;28;20013;-90
2024/02/20 03:25:58;;;;;;;7.47;2.28;;;6.80;99.90;;;;;;5057467;28;20025;-91
2024/02/20 03:28:28;;;;;;;4.15;1.77;;;6.90;99.90;;;;;;5056308;28;20052;-90
2024/02/20 03:30:54;;;;;;;6.82;3.08;;;6.90;99.90;;;;;;5038033;28;20028;-90
2024/02/20 03:33:25;;;;;;;4.93;1.92;;;6.90;99.90;;;;;;5057177;28;20491;-90
2024/02/20 03:35:52;;;;;;;6.22;1.73;;;6.90;99.90;;;;;;5038607;28;20025;-91
2024/02/20 03:38:17;;;;;;;9.48;2.58;;;7.00;99.90;;;;;;5038792;28;20088;-89
2024/02/20 03:40:43;;;;;;;3.05;2.75;;;6.90;99.90;;;;;;5050816;28;20045;-90
2024/02/20 03:43:09;;;;;;;5.60;2.13;;;6.90;99.90;;;;;;5054316;28;20043;-89
2024/02/20 03:45:35;;;;;;;5.30;2.33;;;6.90;99.90;;;;;;5055291;28;20025;-91
2024/02/20 03:48:00;;;;;;;7.03;2.63;;;6.90;99.90;;;;;;5034553;28;20025;-92
2024/02/20 03:50:26;;;;;;;6.40;2.30;;;6.90;99.90;;;;;;5053131;28;20516;-91
2024/02/20 03:52:52;;;;;;;7.07;1.80;;;6.90;99.90;;;;;;5043700;28;20025;-90
2024/02/20 03:55:18;;;;;;;4.93;1.92;;;7.00;99.90;;;;;;5051395;28;20032;-91
2024/02/20 03:57:43;;;;;;;8.18;2.78;;;7.00;99.90;;;;;;5054087;28;20029;-91
2024/02/20 04:00:12;;;;;;;9.90;2.92;;;7.00;99.90;;;;;;5050639;28;20021;-89
2024/02/20 04:02:42;;;;;;;6.95;2.40;;;7.00;99.90;;;;;;5035644;28;20060;-91
2024/02/20 04:05:12;;;;;;;6.50;1.92;;;6.90;99.90;;;;;;5042087;28;20040;-91
2024/02/20 04:07:39;;;;;;;3.70;2.92;;;7.00;99.90;;;;;;5056775;28;20021;-92
2024/02/20 04:10:11;;;;;;;10.57;2.47;;;7.00;99.90;;;;;;5056480;28;20021;-92
2024/02/20 04:12:37;;;;;;;6.93;3.97;;;7.00;99.90;;;;;;5055629;28;20110;-90
2024/02/20 04:15:04;;;;;;;11.02;2.55;;;7.00;99.90;;;;;;5056163;28;20025;-89
2024/02/20 04:17:31;;;;;;;6.55;2.63;;;7.00;99.90;;;;;;5064321;28;20013;-87
2024/02/20 04:19:58;;;;;;;9.57;2.53;;;7.00;99.90;;;;;;5055243;28;20021;-89
2024/02/20 04:22:23;;;;;;;8.82;3.47;;;7.00;99.90;;;;;;5072667;28;20037;-87
2024/02/20 04:24:49;;;;;;;6.70;3.30;;;7.00;99.90;;;;;;5063984;28;20053;-89
2024/02/20 04:27:15;;;;;;;7.90;2.55;;;6.90;99.90;;;;;;5059074;28;20044;-91
2024/02/20 04:29:43;;;;;;;3.38;2.70;;;6.90;99.90;;;;;;5056963;28;20025;-90
2024/02/20 04:32:09;;;;;;;6.70;3.00;;;6.90;99.90;;;;;;5056555;28;20032;-90
2024/02/20 04:34:34;;;;;;;5.82;2.88;;;6.90;99.90;;;;;;5038812;28;20021;-91
2024/02/20 04:37:00;;;;;;;6.75;3.28;;;6.90;99.90;;;;;;5052760;28;20078;-88
2024/02/20 04:39:25;;;;;;;9.20;3.33;;;6.90;99.90;;;;;;5041737;28;20206;-92
2024/02/20 04:41:51;;;;;;;4.25;2.47;;;6.90;99.90;;;;;;5037099;28;20113;-90
2024/02/20 04:44:20;;;;;;;8.05;3.25;;;6.90;99.90;;;;;;5058371;28;20032;-91
2024/02/20 04:46:45;;;;;;;8.93;3.42;;;6.80;99.90;;;;;;5065351;28;20085;-91
2024/02/20 04:49:11;;;;;;;8.05;2.88;;;6.80;99.90;;;;;;5062784;28;20033;-91
2024/02/20 04:51:37;;;;;;;6.28;4.05;;;6.80;99.90;;;;;;5062009;28;20021;-90
2024/02/20 04:54:02;;;;;;;7.05;2.92;;;6.80;99.90;;;;;;5053526;28;20029;-90
2024/02/20 04:56:28;;;;;;;8.50;3.45;;;6.80;99.90;;;;;;5054677;28;20053;-92
2024/02/20 04:58:54;;;;;;;5.53;3.10;;;6.80;99.90;;;;;;5044458;28;20027;-92
2024/02/20 05:01:20;;;;;;;7.30;3.70;;;6.80;99.90;;;;;;5042769;28;20502;-91
2024/02/20 05:03:48;;;;;;;6.63;3.25;;;6.70;99.90;;;;;;5047672;28;20040;-91
2024/02/20 05:06:14;;;;;;;7.18;3.45;;;6.70;99.90;;;;;;5042780;28;20026;-90
2024/02/20 05:08:39;;;;;;;8.60;3.65;;;6.70;99.90;;;;;;5051166;28;20461;-90
2024/02/20 05:11:06;;;;;;;5.53;3.53;;;6.70;99.90;;;;;;5060068;28;20531;-90
2024/02/20 05:13:31;;;;;;;10.75;3.58;;;6.70;99.90;;;;;;5059169;28;20037;-90
2024/02/20 05:15:57;;;;;;;7.22;4.03;;;6.70;99.90;;;;;;5047388;28;20104;-89
2024/02/20 05:18:23;;;;;;;10.40;3.67;;;6.70;99.90;;;;;;5038574;28;20021;-90
2024/02/20 05:20:49;;;;;;;9.43;5.00;;;6.60;99.90;;;;;;5046163;28;20029;-90
2024/02/20 05:23:15;;;;;;;9.63;4.10;;;6.70;99.90;;;;;;5058288;28;20022;-90
2024/02/20 05:25:41;;;;;;;10.02;3.85;;;6.70;99.90;;;;;;5052367;28;20082;-91
2024/02/20 05:28:07;;;;;;;6.43;3.50;;;6.60;99.90;;;;;;5061667;28;20032;-91
2024/02/20 05:30:35;;;;;;;8.45;3.55;;;6.50;99.90;;;;;;5059843;28;20027;-91
2024/02/20 05:33:02;;;;;;;10.27;3.50;;;6.60;99.90;;;;;;5052535;28;20040;-91
2024/02/20 05:35:28;;;;;;;15.20;3.97;;;6.60;99.90;;;;;;5059692;28;20017;-93
2024/02/20 05:37:53;;;;;;;7.25;3.72;;;6.50;99.90;;;;;;5061693;28;20021;-91
2024/02/20 05:40:19;;;;;;;7.43;3.75;;;6.50;99.90;;;;;;5042400;28;20025;-92
2024/02/20 05:42:46;;;;;;;8.95;4.53;;;6.50;99.90;;;;;;5051131;28;20048;-90
2024/02/20 05:45:12;;;;;;;8.77;3.78;;;6.50;99.90;;;;;;5050232;28;20021;-91
2024/02/20 05:47:41;;;;;;;9.50;3.50;;;6.50;99.90;;;;;;5051451;28;20051;-93
2024/02/20 05:50:07;;;;;;;10.25;4.60;;;6.50;99.90;;;;;;5060025;28;20032;-93
2024/02/20 05:52:32;;;;;;;10.50;5.28;;;6.40;99.90;;;;;;5031024;28;20025;-92
2024/02/20 05:54:58;;;;;;;12.70;4.57;;;6.50;99.90;;;;;;5023125;28;20025;-93
2024/02/20 05:57:24;;;;;;;10.65;3.35;;;6.50;99.90;;;;;;5044092;28;20014;-91
2024/02/20 05:59:50;;;;;;;9.77;3.90;;;6.40;99.90;;;;;;5031438;28;20039;-91
2024/02/20 06:02:15;;;;;;;11.52;3.90;;;6.50;99.90;;;;;;5049698;28;20056;-92
2024/02/20 06:04:41;;;;;;;9.02;3.10;;;6.50;99.90;;;;;;5046931;28;20028;-92
2024/02/20 06:07:07;;;;;;;14.20;4.63;;;6.50;99.90;;;;;;5048562;28;20034;-91
2024/02/20 06:09:32;;;;;;;13.68;3.83;;;6.50;99.90;;;;;;5040678;28;20034;-91
2024/02/20 06:12:01;;;;;;;9.23;3.67;;;6.40;99.90;;;;;;5046839;28;20485;-91
2024/02/20 06:14:27;;;;;;;9.82;4.60;;;6.40;99.90;;;;;;5055908;28;20032;-91
2024/02/20 06:16:52;;;;;;;10.02;4.32;;;6.40;99.90;;;;;;5055386;28;20397;-90
2024/02/20 06:19:18;;;;;;;10.85;4.60;;;6.40;99.90;;;;;;5052461;28;20028;-90
2024/02/20 06:21:44;;;;;;;12.25;4.78;;;6.40;99.90;;;;;;5054816;28;20049;-92
2024/02/20 06:24:10;;;;;;;9.90;4.65;;;6.40;99.90;;;;;;5059207;28;20067;-90
2024/02/20 06:26:38;;;;;;;8.73;4.55;;;6.40;99.90;;;;;;5063668;28;20414;-92
2024/02/20 06:29:04;;;;;;;11.25;4.78;;;6.50;99.90;;;;;;5080996;22;20049;-91
2024/02/20 06:31:30;;;;;;;6.75;3.58;;;6.50;99.90;;;;;;5057196;28;20093;-89
2024/02/20 06:33:56;;;;;;;8.02;4.38;;;6.50;99.90;;;;;;5048093;28;20022;-88
2024/02/20 06:36:22;;;;;;;11.65;5.07;;;6.50;99.90;;;;;;5053619;28;20017;-89
2024/02/20 06:38:48;;;;;;;12.68;3.92;;;6.50;99.90;;;;;;5057666;28;20057;-90
2024/02/20 06:41:17;;;;;;;9.90;4.50;;;6.40;99.90;;;;;;5053837;28;20051;-89
2024/02/20 06:43:43;;;;;;;19.40;5.75;;;6.40;99.90;;;;;;5044478;28;20020;-89
2024/02/20 06:46:11;;;;;;;12.43;5.38;;;6.50;99.90;;;;;;5048982;28;20022;-90
2024/02/20 06:48:37;;;;;;;16.60;4.78;;;6.40;99.90;;;;;;5039505;28;20034;-90
2024/02/20 06:51:03;;;;;;;13.52;5.05;;;6.40;99.90;;;;;;5052103;28;20049;-90
2024/02/20 06:53:29;;;;;;;9.63;4.97;;;6.40;99.90;;;;;;5038673;28;20068;-90
2024/02/20 06:55:58;;;;;;;16.88;6.10;;;6.40;99.90;;;;;;5035830;28;20025;-89
2024/02/20 06:58:26;;;;;;;10.82;4.50;;;6.40;99.90;;;;;;5059597;28;20025;-90
2024/02/20 07:00:51;;;;;;;12.85;4.25;;;6.40;99.90;;;;;;5052285;28;20044;-89
2024/02/20 07:03:17;;;;;;;15.68;5.18;;;6.40;99.90;;;;;;5043099;28;20025;-91
2024/02/20 07:05:43;;;;;;;17.48;5.38;;;6.40;99.90;;;;;;5044281;28;20013;-90
2024/02/20 07:08:09;;;;;;;10.38;5.68;;;6.40;99.90;;;;;;5061998;28;20029;-89
2024/02/20 07:10:35;;;;;;;16.75;5.85;;;6.40;99.90;;;;;;5055676;28;20063;-90
2024/02/20 07:13:01;;;;;;;17.30;7.43;;;6.50;99.90;;;;;;5050138;28;20033;-90
2024/02/20 07:15:27;;;;;;;14.00;6.82;;;6.50;99.90;;;;;;5051049;28;20022;-89
2024/02/20 07:17:52;;;;;;;11.90;5.00;;;6.50;99.90;;;;;;5040281;28;20045;-92
2024/02/20 07:20:18;;;;;;;16.80;6.05;;;6.60;99.90;;;;;;5070133;28;20043;-91
2024/02/20 07:22:44;;;;;;;11.88;6.18;;;6.50;99.90;;;;;;5072708;28;20032;-90
2024/02/20 07:25:11;;;;;;;13.60;6.25;;;6.60;99.90;;;;;;5066412;28;20071;-88
2024/02/20 07:27:37;;;;;;;10.07;4.90;;;6.60;99.90;;;;;;5051907;28;20033;-88
2024/02/20 07:30:03;;;;;;;13.77;6.68;;;6.50;99.90;;;;;;5032808;28;20037;-89
2024/02/20 07:32:30;;;;;;;14.35;5.50;;;6.60;99.90;;;;;;5050322;28;20104;-88
2024/02/20 07:34:55;;;;;;;14.80;6.45;;;6.60;99.90;;;;;;5071406;28;20094;-90
2024/02/20 07:37:21;;;;;;;16.63;5.85;;;6.60;99.90;;;;;;5069917;28;20455;-89
2024/02/20 07:39:46;;;;;;;12.63;6.88;;;6.60;99.90;;;;;;5049854;28;20030;-89
2024/02/20 07:42:13;;;;;;;15.95;6.63;;;6.50;99.90;;;;;;5050863;28;20026;-89
2024/02/20 07:44:44;;;;;;;16.38;6.07;;;6.60;99.90;;;;;;5051444;28;20021;-90
2024/02/20 07:47:10;;;;;;;16.25;6.07;;;6.60;99.90;;;;;;5058967;28;20028;-89
2024/02/20 07:49:36;;;;;;;17.13;7.43;;;6.60;99.90;;;;;;5072998;28;20017;-89
2024/02/20 07:52:02;;;;;;;17.85;8.02;;;6.60;99.90;;;;;;5053982;28;20025;-90
2024/02/20 07:54:31;;;;;;;16.10;6.80;;;6.60;99.90;;;;;;5053830;28;20028;-91
2024/02/20 07:56:57;;;;;;;15.57;5.63;;;6.60;99.90;;;;;;5071207;28;20029;-89
2024/02/20 07:59:24;;;;;;;20.17;7.13;;;6.60;99.90;;;;;;5053470;28;20112;-89
2024/02/20 08:01:52;;;;;;;13.80;7.93;;;6.60;99.90;;;;;;5053132;28;20021;-90
2024/02/20 08:04:24;;;;;;;16.30;7.22;;;6.70;99.90;;;;;;5069166;28;20096;-89
2024/02/20 08:06:50;;;;;;;20.38;7.97;;;6.70;99.90;;;;;;5069099;28;20021;-89
2024/02/20 08:09:19;;;;;;;21.02;8.43;;;6.70;99.90;;;;;;5070587;28;20108;-89
2024/02/20 08:11:44;;;;;;;15.07;6.13;;;6.70;99.90;;;;;;5071122;28;20033;-89
2024/02/20 08:14:10;;;;;;;17.88;7.40;;;6.80;99.90;;;;;;5074524;28;20032;-91
2024/02/20 08:16:37;;;;;;;21.00;8.48;;;6.80;99.90;;;;;;5058134;28;20481;-90
2024/02/20 08:19:06;;;;;;;22.25;8.57;;;6.80;99.90;;;;;;5057725;28;20019;-88
2024/02/20 08:21:32;;;;;;;27.17;9.63;;;6.80;99.90;;;;;;5058515;28;20017;-88
2024/02/20 08:24:01;;;;;;;15.93;7.60;;;6.90;99.90;;;;;;5057072;28;20036;-89
2024/02/20 08:26:26;;;;;;;18.48;8.73;;;7.00;99.90;;;;;;5068613;28;20025;-88
2024/02/20 08:28:53;;;;;;;18.95;8.38;;;7.10;99.90;;;;;;5068988;28;20042;-89
2024/02/20 08:34:31;;;;;;;16.88;6.97;;;7.10;99.90;;;;;;5048165;28;20111;-89
2024/02/20 08:36:58;;;;;;;17.38;8.07;;;7.10;99.90;;;;;;5051127;28;20092;-90
2024/02/20 08:39:24;;;;;;;21.13;7.88;;;7.10;99.90;;;;;;5070169;28;20059;-89
2024/02/20 08:41:50;;;;;;;18.77;7.63;;;7.10;99.90;;;;;;5052749;28;20036;-89
2024/02/20 08:44:16;;;;;;;18.50;8.30;;;7.10;99.90;;;;;;5052427;28;20060;-90
2024/02/20 08:46:41;;;;;;;22.55;9.70;;;7.20;99.90;;;;;;5031481;28;20026;-91
2024/02/20 08:49:07;;;;;;;24.17;8.20;;;7.20;99.90;;;;;;5059641;28;20025;-91
2024/02/20 08:51:33;;;;;;;16.67;7.28;;;7.20;99.90;;;;;;5025756;28;20041;-90
2024/02/20 08:53:58;;;;;;;14.30;7.78;;;7.40;99.90;;;;;;5038696;28;20109;-87
2024/02/20 08:56:24;;;;;;;17.88;8.48;;;7.30;99.90;;;;;;5022634;28;20094;-89
2024/02/20 08:58:53;;;;;;;20.15;7.93;;;7.40;99.90;;;;;;5041279;28;20028;-89
2024/02/20 09:01:18;;;;;;;23.75;7.30;;;7.50;99.90;;;;;;5041538;28;20036;-91
2024/02/20 09:03:44;;;;;;;20.35;7.70;;;7.60;99.90;;;;;;5034950;28;20034;-93
2024/02/20 09:06:10;;;;;;;20.05;8.30;;;7.60;99.90;;;;;;5039838;28;20725;-93
2024/02/20 09:08:36;;;;;;;16.58;9.32;;;7.70;99.90;;;;;;5042550;28;20097;-93
2024/02/20 09:11:05;;;;;;;21.45;8.10;;;7.70;99.90;;;;;;5038968;28;20033;-89
2024/02/20 09:13:34;;;;;;;21.02;7.80;;;7.80;99.90;;;;;;5034247;28;20051;-92
2024/02/20 09:16:00;;;;;;;17.23;7.90;;;7.80;99.90;;;;;;5040084;28;20021;-93
2024/02/20 09:18:27;;;;;;;18.00;8.57;;;7.70;99.90;;;;;;5039834;28;20043;-91
2024/02/20 09:20:53;;;;;;;20.33;8.02;;;7.70;99.90;;;;;;5023653;28;20018;-91
2024/02/20 09:23:19;;;;;;;22.40;8.40;;;7.80;99.90;;;;;;5022913;28;20182;-89
2024/02/20 09:25:46;;;;;;;16.80;7.60;;;7.90;99.90;;;;;;5038326;28;20613;-88
2024/02/20 09:28:22;;;;;;;22.65;6.80;;;7.80;99.90;;;;;;5033269;28;20026;-87
2024/02/20 09:30:48;;;;;;;19.05;8.25;;;8.00;99.90;;;;;;5034617;28;20128;-89
2024/02/20 09:33:17;;;;;;;18.70;8.15;;;8.00;99.90;;;;;;5054683;28;20098;-92
2024/02/20 09:35:43;;;;;;;23.05;9.38;;;8.00;99.90;;;;;;5041243;28;20157;-88
2024/02/20 09:38:10;;;;;;;20.85;8.68;;;8.10;99.90;;;;;;5041102;28;20133;-89
2024/02/20 09:40:36;;;;;;;17.65;7.70;;;8.20;99.90;;;;;;5043371;28;20017;-90
2024/02/20 09:43:04;;;;;;;18.52;8.52;;;8.40;99.90;;;;;;5043651;28;20040;-87
2024/02/20 09:45:32;;;;;;;19.20;8.57;;;8.50;99.90;;;;;;5041940;28;20031;-86
2024/02/20 09:48:09;;;;;;;26.48;9.50;;;8.60;99.90;;;;;;5043190;28;20032;-88
2024/02/20 09:50:50;;;;;;;19.27;9.73;;;8.70;99.90;;;;;;5045140;28;20067;-89
2024/02/20 09:53:29;;;;;;;25.65;8.95;;;8.80;99.90;;;;;;5028144;28;20025;-85
2024/02/20 09:59:45;;;;;;;19.75;7.80;;;9.10;99.90;;;;;;4926003;28;20047;-87
2024/02/20 10:02:19;;;;;;;19.55;7.68;;;9.20;99.90;;;;;;4996254;28;20038;-90
2024/02/20 10:04:46;;;;;;;18.00;6.82;;;9.20;99.10;;;;;;4993147;28;20089;-88
2024/02/20 10:07:14;;;;;;;17.90;8.73;;;9.30;98.80;;;;;;5021657;28;20048;-90
2024/02/20 10:09:40;;;;;;;24.95;12.77;;;9.40;96.20;;;;;;5045855;28;20092;-91
2024/02/20 10:12:18;;;;;;;27.77;10.63;;;9.50;98.50;;;;;;5043977;28;20073;-89
2024/02/20 10:14:43;;;;;;;41.85;24.15;;;9.60;96.10;;;;;;5049822;28;20018;-89
2024/02/20 10:17:11;;;;;;;19.27;8.85;;;9.70;96.00;;;;;;5039625;28;20052;-91
2024/02/20 10:19:36;;;;;;;28.70;10.05;;;9.90;94.90;;;;;;5048027;28;20021;-85
2024/02/20 10:22:02;;;;;;;29.10;12.32;;;9.90;93.70;;;;;;5032134;28;20110;-88
2024/02/20 10:24:27;;;;;;;21.67;7.88;;;10.10;96.20;;;;;;5048575;28;20027;-90
2024/02/20 10:27:48;;;;;;;22.55;9.65;;;10.20;93.10;;;;;;5052334;28;20056;-87
2024/02/20 10:30:14;;;;;;;30.40;15.63;;;10.20;94.30;;;;;;5053302;28;20048;-88
2024/02/20 10:32:40;;;;;;;61.60;34.47;;;10.70;93.20;;;;;;5057254;28;20032;-91
2024/02/20 10:35:11;;;;;;;23.45;11.63;;;10.50;91.40;;;;;;5040114;28;20029;-88
2024/02/20 10:37:40;;;;;;;31.88;18.80;;;10.10;93.20;;;;;;5037458;28;20026;-88
2024/02/20 10:40:08;;;;;;;29.13;14.50;;;10.00;95.20;;;;;;5045111;28;20025;-89
2024/02/20 10:42:35;;;;;;;42.20;30.92;;;10.00;96.40;;;;;;5047398;28;20025;-90
2024/02/20 10:45:11;;;;;;;29.85;15.10;;;10.30;93.20;;;;;;5043951;28;20026;-89
2024/02/20 10:47:46;;;;;;;26.70;12.18;;;10.50;93.30;;;;;;5052718;28;20021;-90
2024/02/20 10:50:15;;;;;;;21.38;9.68;;;10.90;90.30;;;;;;5061896;28;20204;-89
2024/02/20 10:52:42;;;;;;;20.55;7.40;;;10.70;90.50;;;;;;5043351;28;20075;-92
2024/02/20 10:55:11;;;;;;;25.58;9.57;;;10.70;91.30;;;;;;5050318;28;20100;-90
2024/02/20 10:57:42;;;;;;;21.50;10.00;;;10.30;92.90;;;;;;5051035;28;20028;-90
2024/02/20 11:00:09;;;;;;;18.20;7.78;;;9.80;94.50;;;;;;5049110;28;20071;-89
2024/02/20 11:02:46;;;;;;;21.17;8.27;;;9.40;98.20;;;;;;5058662;28;20028;-93
2024/02/20 11:05:17;;;;;;;21.98;8.75;;;9.30;99.30;;;;;;5056765;28;20052;-89
2024/02/20 11:07:44;;;;;;;19.73;8.77;;;9.30;98.80;;;;;;5052629;28;20040;-91
2024/02/20 11:10:22;;;;;;;15.60;6.72;;;9.30;99.70;;;;;;5053960;28;20522;-89
2024/02/20 11:12:50;;;;;;;23.35;9.23;;;9.40;97.60;;;;;;5044744;28;20021;-91
2024/02/20 11:15:20;;;;;;;21.35;7.65;;;9.60;99.40;;;;;;5055560;28;20539;-90
2024/02/20 11:17:54;;;;;;;20.92;7.40;;;10.10;95.90;;;;;;5041169;28;20029;-91
2024/02/20 11:20:24;;;;;;;17.20;7.43;;;10.50;92.30;;;;;;5036251;28;20025;-89
2024/02/20 11:22:50;;;;;;;19.00;7.22;;;10.40;90.20;;;;;;5057638;28;20017;-90
2024/02/20 11:25:32;;;;;;;15.88;7.63;;;10.50;89.90;;;;;;5048867;28;20507;-91
2024/02/20 11:27:58;;;;;;;24.52;7.90;;;10.70;88.50;;;;;;5045102;28;20089;-89
2024/02/20 11:30:26;;;;;;;21.45;6.97;;;11.10;87.90;;;;;;5056854;28;20063;-88
2024/02/20 11:32:56;;;;;;;16.58;5.78;;;11.70;85.40;;;;;;5049592;28;20125;-92
2024/02/20 11:35:33;;;;;;;16.35;6.70;;;11.30;81.90;;;;;;5061838;28;20088;-89
2024/02/20 11:38:01;;;;;;;20.40;9.68;;;11.80;80.80;;;;;;5023104;28;20025;-89
2024/02/20 11:40:33;;;;;;;20.50;8.48;;;12.10;80.20;;;;;;5026522;28;20029;-90
2024/02/20 11:43:01;;;;;;;17.40;6.75;;;12.00;78.10;;;;;;5040117;28;20021;-90
2024/02/20 11:45:29;;;;;;;21.08;6.70;;;11.90;78.50;;;;;;5054338;28;20075;-91
2024/02/20 11:48:08;;;;;;;13.65;5.80;;;11.90;77.90;;;;;;5040718;28;20017;-90
2024/02/20 11:50:37;;;;;;;13.75;5.68;;;11.60;76.60;;;;;;5050780;28;20029;-90
2024/02/20 11:53:11;;;;;;;14.68;6.65;;;12.10;77.30;;;;;;5040959;28;20029;-91
2024/02/20 11:55:40;;;;;;;14.27;5.30;;;12.10;74.50;;;;;;5051120;28;20392;-87
2024/02/20 11:58:07;;;;;;;19.65;6.00;;;12.00;74.60;;;;;;5047608;28;20047;-89
2024/02/20 12:00:35;;;;;;;13.18;5.05;;;12.30;75.10;;;;;;5055958;28;20143;-91
2024/02/20 12:03:05;;;;;;;16.23;5.13;;;11.80;72.20;;;;;;5055773;28;20029;-87
2024/02/20 12:05:40;;;;;;;13.05;5.32;;;12.10;73.70;;;;;;5053809;28;20087;-88
2024/02/20 12:08:13;;;;;;;14.55;6.18;;;11.90;72.20;;;;;;5050019;28;20051;-89
2024/02/20 12:10:39;;;;;;;13.23;4.05;;;12.10;73.00;;;;;;5048278;28;20025;-89
2024/02/20 12:13:15;;;;;;;18.48;5.65;;;11.90;71.00;;;;;;5037335;28;20097;-88
2024/02/20 12:15:43;;;;;;;12.60;4.78;;;12.50;69.90;;;;;;5039147;28;20025;-90
2024/02/20 12:18:09;;;;;;;13.88;4.90;;;12.60;70.60;;;;;;5057491;28;20025;-88
2024/02/20 12:20:36;;;;;;;12.73;5.40;;;12.30;70.20;;;;;;5053504;28;20151;-90
2024/02/20 12:23:01;;;;;;;12.27;5.45;;;12.00;72.40;;;;;;5050296;28;20021;-89
2024/02/20 12:25:27;;;;;;;13.10;3.42;;;12.00;71.70;;;;;;5058151;28;20027;-90
2024/02/20 12:27:53;;;;;;;11.50;3.20;;;12.00;70.80;;;;;;5053187;28;20033;-89
2024/02/20 12:30:20;;;;;;;14.93;6.57;;;11.70;72.20;;;;;;5053539;28;20068;-91
2024/02/20 12:32:45;;;;;;;10.85;5.32;;;11.60;73.20;;;;;;5050042;28;20572;-90
2024/02/20 12:35:11;;;;;;;9.43;3.50;;;11.90;72.50;;;;;;5055565;28;20033;-89
2024/02/20 12:37:39;;;;;;;15.60;7.18;;;11.60;71.10;;;;;;5059010;28;20025;-90
2024/02/20 12:40:08;;;;;;;13.43;4.82;;;11.50;73.00;;;;;;5048367;28;20387;-90
2024/02/20 12:42:35;;;;;;;14.88;4.10;;;11.40;73.90;;;;;;5057663;28;20085;-88
2024/02/20 12:45:01;;;;;;;9.07;4.43;;;11.40;76.10;;;;;;5038176;28;20036;-91
2024/02/20 12:47:27;;;;;;;12.52;5.93;;;11.50;75.20;;;;;;5042888;28;20026;-91
2024/02/20 12:49:52;;;;;;;9.88;3.67;;;11.50;73.50;;;;;;5057948;28;20029;-91
2024/02/20 12:52:18;;;;;;;12.75;3.58;;;11.70;71.40;;;;;;5050182;28;20049;-90
2024/02/20 12:54:44;;;;;;;13.75;4.53;;;11.70;70.00;;;;;;5041119;28;20089;-91